TAF KILN
KILN 090534Z 0906/1006 00000KT P6SM BKN250 FM091400 14009KT P6SM BKN250 FM091800 16012G22KT P6SM SCT080 BKN250 FM092300 19008KT P6SM BKN050=
METAR KILN
WC KILN
WS KILN
WV KILN